createdAt,value
2018-09-18T00:02:15.779Z,63.75
2018-09-18T00:04:44.960Z,63.72
2018-09-18T00:07:14.008Z,63.44
2018-09-18T00:09:43.177Z,64.04
2018-09-18T00:12:12.387Z,63.95
2018-09-18T00:14:41.738Z,64.68
2018-09-18T00:17:11.088Z,65.02
2018-09-18T00:19:40.100Z,65.23
2018-09-18T00:22:09.455Z,65.62
2018-09-18T00:24:38.631Z,65.15
2018-09-18T00:27:07.700Z,64.78
2018-09-18T00:29:36.951Z,65.59
2018-09-18T00:32:06.069Z,65.77
2018-09-18T00:34:35.224Z,66.00
2018-09-18T00:37:04.523Z,65.96
2018-09-18T00:39:33.805Z,66.26
2018-09-18T00:42:03.219Z,65.85
2018-09-18T00:44:32.267Z,66.14
2018-09-18T00:47:01.403Z,65.55
2018-09-18T00:49:30.796Z,65.71
2018-09-18T00:51:59.918Z,65.88
2018-09-18T00:54:29.299Z,66.79
2018-09-18T00:56:58.500Z,65.97
2018-09-18T00:59:27.717Z,66.68
2018-09-18T01:01:56.955Z,65.45
2018-09-18T01:04:26.152Z,66.04
2018-09-18T01:06:55.427Z,66.72
2018-09-18T01:09:24.773Z,66.77
2018-09-18T01:11:54.133Z,66.50
2018-09-18T01:14:23.388Z,66.18
2018-09-18T01:16:52.471Z,65.69
2018-09-18T01:19:21.715Z,66.03
2018-09-18T01:21:50.904Z,66.12
2018-09-18T01:24:20.204Z,66.07
2018-09-18T01:26:49.440Z,66.46
2018-09-18T01:29:18.603Z,65.37
2018-09-18T01:31:47.958Z,65.90
2018-09-18T01:34:17.307Z,65.96
2018-09-18T01:36:46.504Z,65.93
2018-09-18T01:39:15.509Z,66.01
2018-09-18T01:41:44.795Z,65.16
2018-09-18T01:44:14.096Z,64.30
2018-09-18T01:46:43.441Z,65.48
2018-09-18T01:49:12.611Z,65.22
2018-09-18T01:51:41.892Z,65.41
2018-09-18T01:54:11.203Z,65.31
2018-09-18T01:56:40.492Z,65.67
2018-09-18T01:59:09.550Z,65.58
2018-09-18T02:01:38.714Z,64.50
2018-09-18T02:04:07.992Z,64.31
2018-09-18T02:06:37.256Z,64.88
2018-09-18T02:09:08.063Z,65.88
2018-09-18T02:11:37.406Z,66.07
2018-09-18T02:14:06.648Z,66.22
2018-09-18T02:16:35.858Z,66.56
2018-09-18T02:19:05.205Z,66.47
2018-09-18T02:21:34.316Z,66.14
2018-09-18T02:24:03.712Z,66.28
2018-09-18T02:26:33.000Z,66.06
2018-09-18T02:29:02.714Z,66.16
2018-09-18T02:31:32.109Z,66.53
2018-09-18T02:34:01.313Z,67.09
2018-09-18T02:36:30.817Z,66.65
2018-09-18T02:39:00.267Z,67.11
2018-09-18T02:41:29.267Z,67.62
2018-09-18T02:43:58.637Z,67.60
2018-09-18T02:46:27.847Z,68.17
2018-09-18T02:48:57.153Z,67.83
2018-09-18T02:51:26.626Z,67.82
2018-09-18T02:53:56.058Z,68.60
2018-09-18T02:56:25.347Z,68.70
2018-09-18T02:58:54.256Z,69.04
2018-09-18T03:01:23.470Z,68.69
2018-09-18T03:03:52.712Z,68.05
2018-09-18T03:06:21.997Z,69.20
2018-09-18T03:08:51.339Z,69.33
2018-09-18T03:11:20.973Z,69.29
2018-09-18T03:13:50.091Z,70.32
2018-09-18T03:16:19.441Z,70.67
2018-09-18T03:18:48.644Z,69.68
2018-09-18T03:21:17.434Z,69.65
2018-09-18T03:23:46.358Z,69.49
2018-09-18T03:26:15.515Z,70.08
2018-09-18T03:28:44.514Z,70.35
2018-09-18T03:31:13.703Z,70.00
2018-09-18T03:33:42.757Z,69.82
2018-09-18T03:36:11.647Z,70.05
2018-09-18T03:38:40.701Z,70.36
2018-09-18T03:41:09.798Z,69.27
2018-09-18T03:43:39.227Z,69.89
2018-09-18T03:46:08.675Z,70.34
2018-09-18T03:48:37.885Z,71.69
2018-09-18T03:51:06.963Z,71.13
2018-09-18T03:53:36.314Z,71.14
2018-09-18T03:56:05.667Z,71.11
2018-09-18T03:58:35.019Z,70.28
2018-09-18T04:01:04.295Z,70.71
2018-09-18T04:03:33.756Z,69.92
2018-09-18T04:06:03.027Z,69.92
2018-09-18T04:08:32.423Z,70.31
2018-09-18T04:11:01.619Z,71.55
2018-09-18T04:13:30.667Z,70.88
2018-09-18T04:16:00.023Z,71.33
2018-09-18T04:18:29.350Z,71.22
2018-09-18T04:20:58.617Z,71.54
2018-09-18T04:23:27.813Z,71.37
2018-09-18T04:25:56.745Z,70.14
2018-09-18T04:28:25.780Z,70.97
2018-09-18T04:30:55.280Z,70.94
2018-09-18T04:33:24.546Z,71.82
2018-09-18T04:35:53.747Z,71.77
2018-09-18T04:38:22.753Z,70.41
2018-09-18T04:40:52.070Z,71.41
2018-09-18T04:43:21.429Z,71.84
2018-09-18T04:45:50.798Z,71.12
2018-09-18T04:48:20.178Z,71.12
2018-09-18T04:50:49.126Z,70.80
2018-09-18T04:53:18.239Z,69.83
2018-09-18T04:55:47.352Z,69.38
2018-09-18T04:58:16.609Z,69.11
2018-09-18T05:00:45.960Z,68.95
2018-09-18T05:03:15.412Z,69.99
2018-09-18T05:05:44.761Z,70.29
2018-09-18T05:08:13.923Z,70.16
2018-09-18T05:10:43.347Z,70.63
2018-09-18T05:13:12.443Z,70.33
2018-09-18T05:15:41.520Z,69.83
2018-09-18T05:18:10.783Z,69.86
2018-09-18T05:20:40.044Z,69.34
2018-09-18T05:23:09.396Z,69.85
2018-09-18T05:25:38.724Z,70.03
2018-09-18T05:28:07.694Z,69.12
2018-09-18T05:30:36.784Z,68.11
2018-09-18T05:33:06.076Z,68.13
2018-09-18T05:35:35.539Z,66.70
2018-09-18T05:38:04.879Z,66.23
2018-09-18T05:40:34.338Z,65.93
2018-09-18T05:43:03.687Z,65.46
2018-09-18T05:45:32.986Z,66.33
2018-09-18T05:48:02.307Z,65.66
2018-09-18T05:50:31.698Z,66.00
2018-09-18T05:53:01.139Z,65.39
2018-09-18T05:55:30.331Z,65.91
2018-09-18T05:57:59.583Z,65.66
2018-09-18T06:00:28.985Z,65.46
2018-09-18T06:02:58.388Z,65.13
2018-09-18T06:05:27.595Z,64.94
2018-09-18T06:07:56.884Z,64.91
2018-09-18T06:10:26.578Z,64.24
2018-09-18T06:12:55.987Z,64.09
2018-09-18T06:15:25.344Z,63.86
2018-09-18T06:17:54.642Z,63.70
2018-09-18T06:20:23.828Z,63.63
2018-09-18T06:22:52.987Z,62.99
2018-09-18T06:25:22.079Z,63.51
2018-09-18T06:27:51.088Z,62.15
2018-09-18T06:30:20.148Z,62.84
2018-09-18T06:32:49.507Z,61.79
2018-09-18T06:35:18.905Z,61.25
2018-09-18T06:37:48.010Z,61.10
2018-09-18T06:40:17.324Z,60.82
2018-09-18T06:42:46.294Z,60.71
2018-09-18T06:45:15.559Z,60.16
2018-09-18T06:47:44.591Z,59.54
2018-09-18T06:50:13.805Z,58.59
2018-09-18T06:52:42.953Z,58.86
2018-09-18T06:55:11.927Z,58.87
2018-09-18T06:57:41.175Z,57.69
2018-09-18T07:00:10.235Z,57.69
2018-09-18T07:02:39.524Z,57.60
2018-09-18T07:05:08.780Z,57.93
2018-09-18T07:07:38.014Z,57.01
2018-09-18T07:10:07.715Z,56.75
2018-09-18T07:12:36.920Z,56.16
2018-09-18T07:15:06.524Z,56.04
2018-09-18T07:17:35.709Z,55.97
2018-09-18T07:20:05.008Z,55.09
2018-09-18T07:22:34.212Z,54.41
2018-09-18T07:25:03.580Z,53.56
2018-09-18T07:27:32.968Z,54.69
2018-09-18T07:30:02.389Z,55.90
2018-09-18T07:32:31.613Z,54.63
2018-09-18T07:35:00.981Z,53.62
2018-09-18T07:37:30.110Z,53.59
2018-09-18T07:39:59.252Z,52.32
2018-09-18T07:42:28.735Z,50.16
2018-09-18T07:44:57.888Z,48.04
2018-09-18T07:47:27.156Z,47.18
2018-09-18T07:49:56.347Z,45.14
2018-09-18T07:52:25.807Z,43.48
2018-09-18T07:54:54.956Z,43.93
2018-09-18T07:57:24.047Z,43.02
2018-09-18T07:59:53.399Z,42.45
2018-09-18T08:02:22.447Z,43.13
2018-09-18T08:04:51.754Z,42.83
2018-09-18T08:07:20.922Z,42.68
2018-09-18T08:09:50.286Z,42.95
2018-09-18T08:12:19.568Z,43.68
2018-09-18T08:14:48.762Z,42.77
2018-09-18T08:17:17.885Z,44.41
2018-09-18T08:19:47.341Z,44.42
2018-09-18T08:22:16.540Z,44.54
2018-09-18T08:24:45.733Z,45.48
2018-09-18T08:27:14.872Z,44.00
2018-09-18T08:29:44.385Z,43.53
2018-09-18T08:32:13.732Z,42.93
2018-09-18T08:34:42.960Z,42.60
2018-09-18T08:37:12.272Z,42.93
2018-09-18T08:39:41.630Z,42.76
2018-09-18T08:42:10.704Z,43.49
2018-09-18T08:44:40.020Z,42.63
2018-09-18T08:47:09.516Z,43.41
2018-09-18T08:49:38.746Z,42.70
2018-09-18T08:52:08.174Z,43.61
2018-09-18T08:54:37.434Z,44.11
2018-09-18T08:57:07.199Z,44.25
2018-09-18T08:59:36.609Z,45.69
2018-09-18T09:02:05.891Z,45.52
2018-09-18T09:04:34.855Z,44.77
2018-09-18T09:07:04.321Z,43.91
2018-09-18T09:09:33.726Z,44.89
2018-09-18T09:12:02.931Z,44.80
2018-09-18T09:14:32.108Z,43.96
2018-09-18T09:17:01.566Z,44.18
2018-09-18T09:19:30.791Z,44.64
2018-09-18T09:22:00.016Z,43.86
2018-09-18T09:24:29.039Z,43.81
2018-09-18T09:26:58.643Z,43.23
2018-09-18T09:29:27.904Z,43.45
2018-09-18T09:31:57.371Z,43.74
2018-09-18T09:34:26.579Z,42.91
2018-09-18T09:36:55.715Z,44.02
2018-09-18T09:39:24.887Z,42.84
2018-09-18T09:41:54.066Z,42.01
2018-09-18T09:44:23.528Z,41.61
2018-09-18T09:46:52.793Z,41.19
2018-09-18T09:49:21.996Z,41.09
2018-09-18T09:51:51.391Z,40.45
2018-09-18T09:54:20.755Z,39.72
2018-09-18T09:56:50.103Z,40.00
2018-09-18T09:59:19.307Z,38.24
2018-09-18T10:01:55.507Z,38.24
2018-09-18T10:04:24.877Z,36.95
2018-09-18T10:06:54.345Z,34.74
2018-09-18T10:09:23.668Z,32.88
2018-09-18T10:11:52.964Z,30.98
2018-09-18T10:14:22.169Z,29.47
2018-09-18T10:16:51.403Z,26.38
2018-09-18T10:19:20.900Z,25.59
2018-09-18T10:21:49.855Z,23.48
2018-09-18T10:24:19.103Z,23.39
2018-09-18T10:26:48.530Z,23.27
2018-09-18T10:29:17.779Z,22.52
2018-09-18T10:31:46.968Z,21.58
2018-09-18T10:34:16.519Z,20.49
2018-09-18T10:36:45.708Z,19.55
2018-09-18T10:39:14.900Z,19.17
2018-09-18T10:41:44.331Z,18.52
2018-09-18T10:44:13.638Z,18.03
2018-09-18T10:46:42.576Z,17.87
2018-09-18T10:49:11.987Z,17.99
2018-09-18T10:51:40.972Z,17.31
2018-09-18T10:54:10.111Z,17.66
2018-09-18T10:56:39.354Z,17.81
2018-09-18T10:59:08.529Z,17.19
2018-09-18T11:01:37.843Z,16.72
2018-09-18T11:04:06.814Z,16.36
2018-09-18T11:06:36.268Z,16.57
2018-09-18T11:09:07.200Z,16.92
2018-09-18T11:11:36.580Z,17.42
2018-09-18T11:14:05.958Z,17.06
2018-09-18T11:16:35.023Z,16.42
2018-09-18T11:19:04.289Z,16.94
2018-09-18T11:21:33.675Z,16.90
2018-09-18T11:24:02.631Z,17.38
2018-09-18T11:26:32.035Z,17.57
2018-09-18T11:29:01.465Z,16.74
2018-09-18T11:31:30.576Z,16.84
2018-09-18T11:33:59.838Z,17.13
2018-09-18T11:36:29.283Z,16.71
2018-09-18T11:38:58.637Z,17.52
2018-09-18T11:41:28.311Z,17.04
2018-09-18T11:43:57.530Z,17.62
2018-09-18T11:46:26.760Z,18.81
2018-09-18T11:48:56.104Z,18.64
2018-09-18T11:51:24.998Z,18.03
2018-09-18T11:53:54.323Z,17.99
2018-09-18T11:56:23.448Z,16.89
2018-09-18T11:58:52.764Z,16.65
2018-09-18T12:01:22.011Z,16.67
2018-09-18T12:03:51.261Z,16.82
2018-09-18T12:06:20.712Z,16.56
2018-09-18T12:08:49.792Z,16.76
2018-09-18T12:11:18.925Z,17.34
2018-09-18T12:13:48.452Z,17.92
2018-09-18T12:16:17.721Z,18.13
2018-09-18T12:18:46.846Z,17.19
2018-09-18T12:21:16.155Z,16.07
2018-09-18T12:23:45.499Z,16.72
2018-09-18T12:26:14.633Z,16.12
2018-09-18T12:28:43.876Z,16.19
2018-09-18T12:31:14.003Z,15.15
2018-09-18T12:33:43.184Z,15.24
2018-09-18T12:36:12.605Z,16.43
2018-09-18T12:38:41.947Z,17.38
2018-09-18T12:41:11.338Z,16.53
2018-09-18T12:43:40.454Z,16.97
2018-09-18T12:46:09.661Z,17.88
2018-09-18T12:48:38.996Z,18.11
2018-09-18T12:51:08.352Z,18.18
2018-09-18T12:53:37.531Z,17.82
2018-09-18T12:56:06.822Z,17.56
2018-09-18T12:58:36.107Z,16.33
2018-09-18T13:01:05.468Z,16.56
2018-09-18T13:03:34.701Z,16.50
2018-09-18T13:06:04.058Z,16.68
2018-09-18T13:08:33.401Z,16.52
2018-09-18T13:11:02.732Z,16.48
2018-09-18T13:13:31.778Z,16.60
2018-09-18T13:16:00.965Z,16.89
2018-09-18T13:18:30.275Z,16.59
2018-09-18T13:20:59.343Z,16.28
2018-09-18T13:23:28.532Z,16.67
2018-09-18T13:25:57.771Z,17.12
2018-09-18T13:28:27.085Z,19.42
2018-09-18T13:30:56.409Z,19.34
2018-09-18T13:33:25.572Z,20.64
2018-09-18T13:35:54.916Z,23.29
2018-09-18T13:38:24.155Z,23.61
2018-09-18T13:40:53.734Z,24.17
2018-09-18T13:43:23.024Z,24.98
2018-09-18T13:45:52.037Z,25.48
2018-09-18T13:48:21.295Z,26.51
2018-09-18T13:50:50.675Z,26.92
2018-09-18T13:53:20.047Z,27.54
2018-09-18T13:55:49.399Z,28.62
2018-09-18T13:58:18.755Z,28.12
2018-09-18T14:00:47.750Z,28.81
2018-09-18T14:03:17.050Z,29.40
2018-09-18T14:05:46.194Z,29.31
2018-09-18T14:08:15.255Z,29.86
2018-09-18T14:10:44.595Z,30.90
2018-09-18T14:13:13.840Z,30.75
2018-09-18T14:15:42.940Z,31.80
2018-09-18T14:18:12.189Z,31.02
2018-09-18T14:20:41.431Z,31.18
2018-09-18T14:23:10.715Z,31.51
2018-09-18T14:25:40.071Z,31.32
2018-09-18T14:28:09.591Z,31.84
2018-09-18T14:30:38.930Z,32.51
2018-09-18T14:33:08.392Z,32.42
2018-09-18T14:35:37.556Z,32.06
2018-09-18T14:38:06.983Z,32.40
2018-09-18T14:40:36.419Z,32.15
2018-09-18T14:43:05.525Z,32.54
2018-09-18T14:45:34.863Z,32.61
2018-09-18T14:48:04.241Z,33.60
2018-09-18T14:50:33.573Z,33.42
2018-09-18T14:53:02.512Z,33.40
2018-09-18T14:55:31.673Z,33.46
2018-09-18T14:58:01.378Z,32.49
2018-09-18T15:00:30.667Z,33.74
2018-09-18T15:02:59.733Z,33.96
2018-09-18T15:05:29.180Z,32.83
2018-09-18T15:07:58.344Z,32.86
2018-09-18T15:10:27.629Z,33.40
2018-09-18T15:12:56.847Z,33.75
2018-09-18T15:15:25.919Z,34.39
2018-09-18T15:17:55.452Z,34.67
2018-09-18T15:20:24.754Z,34.37
2018-09-18T15:22:53.700Z,34.66
2018-09-18T15:25:22.899Z,35.60
2018-09-18T15:27:52.188Z,35.18
2018-09-18T15:30:21.585Z,36.07
2018-09-18T15:32:50.833Z,35.35
2018-09-18T15:35:20.027Z,36.15
2018-09-18T15:37:49.370Z,36.08
2018-09-18T15:40:18.624Z,35.85
2018-09-18T15:42:48.134Z,37.26
2018-09-18T15:45:17.640Z,36.31
2018-09-18T15:47:46.907Z,37.15
2018-09-18T15:50:16.144Z,37.63
2018-09-18T15:52:45.488Z,38.18
2018-09-18T15:55:14.995Z,38.68
2018-09-18T15:57:44.306Z,38.23
2018-09-18T16:00:13.364Z,38.54
2018-09-18T16:02:42.684Z,38.77
2018-09-18T16:05:11.693Z,39.44
2018-09-18T16:07:41.105Z,40.16
2018-09-18T16:10:10.556Z,40.98
2018-09-18T16:12:39.592Z,40.83
2018-09-18T16:15:08.785Z,40.73
2018-09-18T16:17:38.122Z,41.99
2018-09-18T16:20:07.468Z,41.52
2018-09-18T16:22:36.874Z,42.05
2018-09-18T16:25:06.268Z,43.22
2018-09-18T16:27:35.254Z,43.78
2018-09-18T16:30:04.545Z,44.12
2018-09-18T16:32:33.973Z,44.74
2018-09-18T16:35:03.383Z,43.63
2018-09-18T16:37:32.787Z,43.90
2018-09-18T16:40:02.034Z,44.93
2018-09-18T16:42:30.928Z,45.48
2018-09-18T16:45:00.205Z,45.17
2018-09-18T16:47:29.122Z,45.56
2018-09-18T16:49:58.616Z,46.14
2018-09-18T16:52:27.984Z,45.71
2018-09-18T16:54:57.483Z,46.18
2018-09-18T16:57:26.615Z,46.42
2018-09-18T16:59:56.004Z,46.57
2018-09-18T17:02:25.593Z,47.20
2018-09-18T17:04:54.742Z,47.62
2018-09-18T17:07:23.964Z,48.03
2018-09-18T17:09:53.357Z,47.44
2018-09-18T17:12:22.539Z,47.84
2018-09-18T17:14:51.857Z,48.69
2018-09-18T17:17:21.182Z,47.92
2018-09-18T17:19:50.777Z,48.86
2018-09-18T17:22:20.125Z,48.22
2018-09-18T17:24:49.455Z,48.73
2018-09-18T17:27:18.995Z,48.83
2018-09-18T17:29:48.019Z,48.53
2018-09-18T17:32:17.549Z,48.20
2018-09-18T17:34:46.952Z,48.06
2018-09-18T17:37:16.219Z,48.63
2018-09-18T17:39:45.624Z,47.99
2018-09-18T17:42:14.590Z,49.14
2018-09-18T17:44:43.895Z,48.29
2018-09-18T17:47:13.410Z,49.15
2018-09-18T17:49:43.541Z,49.26
2018-09-18T17:52:12.513Z,49.18
2018-09-18T17:54:41.871Z,48.99
2018-09-18T17:57:11.104Z,49.82
2018-09-18T17:59:40.567Z,48.62
2018-09-18T18:02:10.320Z,48.77
2018-09-18T18:04:39.701Z,48.17
2018-09-18T18:07:09.166Z,47.00
2018-09-18T18:09:39.161Z,46.84
2018-09-18T18:12:08.538Z,46.60
2018-09-18T18:14:37.721Z,47.63
2018-09-18T18:17:08.001Z,47.25
2018-09-18T18:19:36.917Z,48.48
2018-09-18T18:22:06.761Z,47.64
2018-09-18T18:24:35.995Z,48.36
2018-09-18T18:27:06.333Z,47.73
2018-09-18T18:29:36.059Z,48.25
2018-09-18T18:32:05.708Z,48.43
2018-09-18T18:34:35.197Z,48.35
2018-09-18T18:37:04.399Z,49.42
2018-09-18T18:39:34.058Z,49.20
2018-09-18T18:42:03.173Z,48.46
2018-09-18T18:44:33.483Z,49.28
2018-09-18T18:47:04.188Z,49.34
2018-09-18T18:49:38.149Z,49.88
2018-09-18T18:52:07.668Z,50.50
2018-09-18T18:54:42.101Z,49.61
2018-09-18T18:57:12.183Z,49.60
2018-09-18T18:59:43.043Z,49.15
2018-09-18T19:02:11.948Z,49.11
2018-09-18T19:04:41.468Z,49.56
2018-09-18T19:07:11.654Z,50.36
2018-09-18T19:09:40.925Z,49.78
2018-09-18T19:12:10.805Z,49.74
2018-09-18T19:14:40.988Z,49.71
2018-09-18T19:17:11.237Z,49.88
2018-09-18T19:19:40.676Z,49.75
2018-09-18T19:22:09.934Z,49.78
2018-09-18T19:24:39.168Z,50.95
2018-09-18T19:27:08.302Z,51.50
2018-09-18T19:29:37.415Z,51.42
2018-09-18T19:32:06.601Z,51.74
2018-09-18T19:34:36.598Z,51.83
2018-09-18T19:37:06.167Z,51.55
2018-09-18T19:39:35.877Z,51.83
2018-09-18T19:42:05.207Z,51.28
2018-09-18T19:44:35.239Z,51.64
2018-09-18T19:47:04.608Z,52.33
2018-09-18T19:49:35.628Z,53.36
2018-09-18T19:52:04.646Z,53.27
2018-09-18T19:54:33.981Z,53.85
2018-09-18T19:57:03.368Z,54.14
2018-09-18T19:59:32.763Z,54.59
2018-09-18T20:02:02.271Z,54.88
2018-09-18T20:04:31.593Z,54.14
2018-09-18T20:07:00.919Z,54.61
2018-09-18T20:09:30.032Z,54.85
2018-09-18T20:11:59.009Z,54.83
2018-09-18T20:14:28.307Z,54.94
2018-09-18T20:16:57.512Z,54.92
2018-09-18T20:19:26.720Z,55.13
2018-09-18T20:21:56.058Z,54.81
2018-09-18T20:24:25.444Z,54.59
2018-09-18T20:26:54.864Z,54.83
2018-09-18T20:29:24.000Z,54.39
2018-09-18T20:31:53.260Z,54.47
2018-09-18T20:34:22.807Z,54.76
2018-09-18T20:36:52.531Z,54.93
2018-09-18T20:39:21.760Z,54.61
2018-09-18T20:41:51.013Z,54.91
2018-09-18T20:44:19.946Z,54.84
2018-09-18T20:46:49.296Z,54.09
2018-09-18T20:49:18.552Z,53.98
2018-09-18T20:51:47.733Z,55.33
2018-09-18T20:54:16.939Z,54.95
2018-09-18T20:56:46.146Z,54.75
2018-09-18T20:59:15.154Z,55.88
2018-09-18T21:01:44.335Z,55.72
2018-09-18T21:04:13.730Z,56.52
2018-09-18T21:06:43.032Z,55.94
2018-09-18T21:09:12.167Z,56.09
2018-09-18T21:11:41.483Z,55.29
2018-09-18T21:14:10.982Z,55.97
2018-09-18T21:16:40.162Z,56.02
2018-09-18T21:19:09.427Z,56.38
2018-09-18T21:21:38.718Z,56.77
2018-09-18T21:24:08.072Z,57.78
2018-09-18T21:26:37.307Z,58.02
2018-09-18T21:29:06.496Z,56.21
2018-09-18T21:31:35.396Z,56.38
2018-09-18T21:34:04.436Z,56.83
2018-09-18T21:36:33.799Z,56.92
2018-09-18T21:39:03.267Z,57.71
2018-09-18T21:41:32.443Z,58.35
2018-09-18T21:44:01.648Z,57.99
2018-09-18T21:46:30.994Z,57.09
2018-09-18T21:49:00.339Z,57.38
2018-09-18T21:51:29.800Z,57.54
2018-09-18T21:53:59.106Z,58.17
2018-09-18T21:56:28.411Z,58.12
2018-09-18T21:58:57.784Z,58.46
2018-09-18T22:01:27.235Z,58.53
2018-09-18T22:03:56.541Z,58.91
2018-09-18T22:06:25.863Z,60.04
2018-09-18T22:08:54.893Z,59.03
2018-09-18T22:11:24.107Z,60.14
2018-09-18T22:13:53.559Z,58.96
2018-09-18T22:16:22.561Z,59.47
2018-09-18T22:18:52.080Z,59.10
2018-09-18T22:21:21.292Z,59.06
2018-09-18T22:23:50.529Z,59.80
2018-09-18T22:26:19.823Z,59.82
2018-09-18T22:28:49.178Z,60.75
2018-09-18T22:31:18.363Z,61.45
2018-09-18T22:33:47.674Z,61.81
2018-09-18T22:36:16.912Z,62.19
2018-09-18T22:38:46.381Z,61.43
2018-09-18T22:41:15.344Z,62.03
2018-09-18T22:43:44.566Z,61.31
2018-09-18T22:46:13.851Z,62.73
2018-09-18T22:48:43.071Z,62.38
2018-09-18T22:51:12.354Z,61.75
2018-09-18T22:53:41.603Z,62.71
2018-09-18T22:56:10.948Z,62.76
2018-09-18T22:58:40.165Z,62.28
2018-09-18T23:01:09.400Z,62.10
2018-09-18T23:03:38.595Z,61.52
2018-09-18T23:06:07.946Z,60.03
2018-09-18T23:08:37.197Z,60.03
2018-09-18T23:11:06.748Z,60.73
2018-09-18T23:13:35.758Z,60.87
2018-09-18T23:16:04.755Z,61.45
2018-09-18T23:18:34.004Z,61.50
2018-09-18T23:21:03.442Z,61.56
2018-09-18T23:23:32.940Z,61.79
2018-09-18T23:26:01.773Z,62.24
2018-09-18T23:28:31.194Z,62.24
2018-09-18T23:31:00.249Z,62.02
2018-09-18T23:33:29.675Z,61.40
2018-09-18T23:35:58.984Z,62.01
2018-09-18T23:38:28.226Z,61.80
2018-09-18T23:40:57.471Z,62.75
2018-09-18T23:43:26.731Z,62.67
2018-09-18T23:45:56.023Z,62.84
2018-09-18T23:48:25.209Z,63.11
2018-09-18T23:50:54.169Z,63.08
2018-09-18T23:53:23.155Z,63.62
2018-09-18T23:55:52.343Z,63.59
2018-09-18T23:58:21.618Z,63.14
